createdAt,value
2024-02-13T00:03:55.604Z,4.98
2024-02-13T00:13:59.134Z,4.98
2024-02-13T00:24:03.513Z,4.97
2024-02-13T00:34:06.624Z,4.95
2024-02-13T00:44:10.997Z,5.00
2024-02-13T00:54:15.320Z,4.96
2024-02-13T01:04:19.867Z,4.98
2024-02-13T01:14:23.067Z,4.90
2024-02-13T01:24:27.867Z,4.99
2024-02-13T01:34:31.789Z,4.64
2024-02-13T01:44:36.068Z,5.02
2024-02-13T01:54:39.111Z,5.00
2024-02-13T02:04:43.759Z,4.71
2024-02-13T02:14:46.991Z,5.12
2024-02-13T02:24:53.311Z,5.49
2024-02-13T02:34:57.591Z,5.51
2024-02-13T02:45:00.942Z,5.37
2024-02-13T02:55:07.133Z,5.30
2024-02-13T03:05:11.137Z,5.04
2024-02-13T03:15:15.341Z,5.01
2024-02-13T03:25:18.454Z,4.88
2024-02-13T03:35:22.862Z,4.77
2024-02-13T03:45:25.929Z,4.72
2024-02-13T03:55:30.294Z,4.74
2024-02-13T04:05:38.719Z,4.75
2024-02-13T04:15:43.444Z,4.64
2024-02-13T04:25:46.456Z,4.55
2024-02-13T04:35:51.018Z,4.38
2024-02-13T04:45:53.993Z,4.37
2024-02-13T04:55:59.312Z,4.42
2024-02-13T05:06:19.848Z,4.33
2024-02-13T05:16:25.368Z,4.20
2024-02-13T05:26:28.746Z,4.14
2024-02-13T05:36:33.672Z,4.13
2024-02-13T05:46:37.417Z,4.06
2024-02-13T05:56:41.815Z,4.00
2024-02-13T06:06:46.256Z,3.95
2024-02-13T06:16:50.537Z,3.91
2024-02-13T06:26:56.047Z,3.77
2024-02-13T06:37:03.127Z,3.76
2024-02-13T06:47:08.154Z,3.75
2024-02-13T06:57:12.590Z,3.70
2024-02-13T07:07:28.532Z,3.66
2024-02-13T07:17:49.007Z,3.70
2024-02-13T07:27:59.952Z,3.59
2024-02-13T07:38:05.813Z,3.83
2024-02-13T07:48:12.533Z,4.26
2024-02-13T07:58:17.021Z,4.48
2024-02-13T08:08:20.104Z,4.61
2024-02-13T08:18:26.163Z,4.76
2024-02-13T08:28:29.375Z,4.99
2024-02-13T08:38:33.880Z,5.15
2024-02-13T08:48:38.665Z,4.95
2024-02-13T08:58:43.428Z,5.20
2024-02-13T09:08:46.373Z,5.41
2024-02-13T09:18:51.038Z,5.63
2024-02-13T09:28:55.103Z,5.85
2024-02-13T09:39:00.063Z,6.07
2024-02-13T09:49:06.362Z,6.36
2024-02-13T09:59:13.376Z,6.86
2024-02-13T10:09:17.771Z,7.26
2024-02-13T10:19:28.657Z,7.63
2024-02-13T10:29:41.538Z,7.72
2024-02-13T10:39:48.748Z,7.82
2024-02-13T10:49:55.326Z,8.05
2024-02-13T11:00:03.199Z,8.40
2024-02-13T11:10:10.348Z,9.11
2024-02-13T11:20:15.964Z,8.51
2024-02-13T11:30:24.767Z,8.81
2024-02-13T11:40:30.044Z,9.24
2024-02-13T11:50:34.042Z,9.44
2024-02-13T12:00:38.629Z,9.78
2024-02-13T12:10:41.835Z,10.04
2024-02-13T12:20:51.162Z,10.65
2024-02-13T12:30:57.148Z,10.50
2024-02-13T12:41:01.722Z,10.29
2024-02-13T12:51:05.832Z,9.95
2024-02-13T13:01:11.247Z,9.61
2024-02-13T13:11:14.990Z,9.81
2024-02-13T13:21:19.730Z,9.74
2024-02-13T13:31:23.641Z,9.76
2024-02-13T13:41:29.096Z,9.89
2024-02-13T13:51:35.051Z,9.73
2024-02-13T14:01:40.499Z,9.41
2024-02-13T14:11:43.719Z,9.22
2024-02-13T14:21:48.097Z,9.39
2024-02-13T14:31:51.386Z,9.37
2024-02-13T14:41:56.090Z,9.34
2024-02-13T14:51:59.070Z,9.43
2024-02-13T15:02:05.789Z,9.44
2024-02-13T15:12:09.167Z,9.60
2024-02-13T15:22:13.562Z,9.45
2024-02-13T15:32:17.351Z,9.56
2024-02-13T15:42:39.555Z,9.40
2024-02-13T15:52:42.648Z,9.25
2024-02-13T16:02:47.835Z,9.04
2024-02-13T16:12:51.891Z,8.87
2024-02-13T16:22:56.546Z,8.61
2024-02-13T16:32:59.794Z,8.63
2024-02-13T16:43:05.387Z,8.64
2024-02-13T16:53:08.805Z,8.44
2024-02-13T17:03:14.444Z,8.51
2024-02-13T17:13:17.729Z,8.51
2024-02-13T17:23:22.217Z,8.62
2024-02-13T17:33:25.404Z,8.33
2024-02-13T17:43:32.454Z,8.29
2024-02-13T17:53:36.419Z,8.31
2024-02-13T18:03:41.828Z,8.19
2024-02-13T18:13:45.942Z,8.20
2024-02-13T18:23:55.508Z,8.09
2024-02-13T18:33:59.508Z,8.08
2024-02-13T18:44:03.992Z,8.08
2024-02-13T18:54:07.094Z,8.02
2024-02-13T19:04:11.442Z,8.03
2024-02-13T19:14:14.481Z,8.11
2024-02-13T19:24:19.070Z,8.07
2024-02-13T19:34:23.550Z,8.08
2024-02-13T19:44:29.355Z,8.12
2024-02-13T19:54:32.478Z,8.16
2024-02-13T20:04:36.776Z,8.04
2024-02-13T20:14:40.188Z,7.97
2024-02-13T20:24:44.749Z,8.15
2024-02-13T20:34:47.915Z,8.01
2024-02-13T20:44:55.498Z,8.02
2024-02-13T20:55:01.052Z,7.86
2024-02-13T21:05:06.685Z,7.97
2024-02-13T21:15:13.210Z,7.82
2024-02-13T21:25:17.911Z,7.79
2024-02-13T21:35:22.463Z,7.91
2024-02-13T21:45:28.880Z,7.79
2024-02-13T21:55:31.950Z,7.75
2024-02-13T22:05:37.750Z,7.92
2024-02-13T22:15:41.406Z,8.01
2024-02-13T22:25:45.507Z,8.16
2024-02-13T22:35:49.353Z,8.33
2024-02-13T22:45:53.680Z,8.55
2024-02-13T22:55:56.603Z,8.70
2024-02-13T23:06:02.474Z,8.73
2024-02-13T23:16:07.938Z,8.77
2024-02-13T23:26:13.960Z,8.81
2024-02-13T23:36:16.968Z,8.80
2024-02-13T23:46:21.162Z,8.77
2024-02-13T23:56:23.907Z,8.80
